Time;durP1;ratioP1;P1;durP2;ratioP2;P2;SDS_P1;SDS_P2;PMS_P1;PMS_P2;Temp;Humidity;BMP_temperature;BMP_pressure;BME280_temperature;BME280_humidity;BME280_pressure;Samples;Min_cycle;Max_cycle;Signal;HPM_P1;HPM_P2
2023/03/18 00:01:44;;;;;;;;;;;;;;;20.21;38.83;100543.50;4938575;28;4191;-67
2023/03/18 00:04:11;;;;;;;;;;;;;;;20.21;38.75;100537.03;4941054;29;4209;-67
2023/03/18 00:06:37;;;;;;;;;;;;;;;20.21;38.78;100534.16;4943714;28;5554;-68
2023/03/18 00:09:04;;;;;;;;;;;;;;;20.20;38.90;100541.28;4941571;28;4328;-67
2023/03/18 00:11:30;;;;;;;;;;;;;;;20.19;38.78;100537.69;4933267;28;4388;-68
2023/03/18 00:13:57;;;;;;;;;;;;;;;20.20;38.87;100535.53;4935214;28;4385;-67
2023/03/18 00:16:23;;;;;;;;;;;;;;;20.19;38.84;100536.94;4944844;28;3996;-68
2023/03/18 00:18:50;;;;;;;;;;;;;;;20.19;38.78;100529.06;4940220;28;4195;-67
2023/03/18 00:21:17;;;;;;;;;;;;;;;20.18;38.71;100521.06;4935057;28;4067;-67
2023/03/18 00:23:44;;;;;;;;;;;;;;;20.18;38.73;100541.97;4941490;28;3917;-68
2023/03/18 00:26:10;;;;;;;;;;;;;;;20.17;38.79;100531.09;4942706;28;4283;-68
2023/03/18 00:28:39;;;;;;;;;;;;;;;20.17;38.86;100543.34;4919919;28;4090;-67
2023/03/18 00:31:07;;;;;;;;;;;;;;;20.16;38.90;100526.72;4947540;28;5260;-67
2023/03/18 00:33:35;;;;;;;;;;;;;;;20.16;38.93;100529.59;4948767;28;4086;-67
2023/03/18 00:36:01;;;;;;;;;;;;;;;20.16;38.95;100526.72;4941747;28;5302;-68
2023/03/18 00:38:28;;;;;;;;;;;;;;;20.16;38.96;100526.72;4944095;28;4004;-68
2023/03/18 00:41:09;;;;;;;;;;;;;;;20.16;38.92;100535.34;4912340;28;4158;-67
2023/03/18 00:43:44;;;;;;;;;;;;;;;20.16;39.09;100524.63;4936469;28;4039;-67
2023/03/18 00:46:18;;;;;;;;;;;;;;;20.18;39.34;100526.81;4932065;28;5341;-66
2023/03/18 00:48:44;;;;;;;;;;;;;;;20.17;39.43;100531.84;4946373;28;4001;-67
2023/03/18 00:51:15;;;;;;;;;;;;;;;20.16;39.52;100523.84;4945273;28;5463;-67
2023/03/18 00:53:43;;;;;;;;;;;;;;;20.15;39.51;100534.63;4950815;28;4160;-67
2023/03/18 00:56:10;;;;;;;;;;;;;;;20.15;39.39;100533.88;4924493;28;5492;-67
2023/03/18 00:58:37;;;;;;;;;;;;;;;20.13;39.40;100525.19;4937212;28;4002;-67
2023/03/18 01:01:04;;;;;;;;;;;;;;;20.12;39.40;100526.59;4938310;28;4252;-67
2023/03/18 01:03:30;;;;;;;;;;;;;;;20.13;39.29;100528.06;4949885;28;4009;-67
2023/03/18 01:05:58;;;;;;;;;;;;;;;20.12;39.39;100523.72;4925777;28;5332;-67
2023/03/18 01:08:25;;;;;;;;;;;;;;;20.12;39.33;100517.97;4948759;28;4021;-67
2023/03/18 01:10:52;;;;;;;;;;;;;;;20.09;39.43;100515.00;4930341;28;4558;-67
2023/03/18 01:13:18;;;;;;;;;;;;;;;20.10;39.43;100527.22;4941322;28;4019;-68
2023/03/18 01:15:45;;;;;;;;;;;;;;;20.11;39.42;100525.09;4926368;29;4185;-67
2023/03/18 01:18:11;;;;;;;;;;;;;;;20.08;39.38;100525.00;4921108;29;4086;-67
2023/03/18 01:20:37;;;;;;;;;;;;;;;20.07;39.41;100517.78;4940343;29;5183;-68
2023/03/18 01:23:04;;;;;;;;;;;;;;;20.08;39.47;100518.53;4945143;28;4143;-67
2023/03/18 01:25:31;;;;;;;;;;;;;;;20.08;39.39;100518.53;4945610;28;4451;-67
2023/03/18 01:27:58;;;;;;;;;;;;;;;20.06;39.50;100519.16;4940132;29;5310;-68
2023/03/18 01:30:24;;;;;;;;;;;;;;;20.06;39.43;100507.66;4925238;28;5343;-67
2023/03/18 01:32:53;;;;;;;;;;;;;;;20.06;39.43;100515.56;4920236;29;4187;-67
2023/03/18 01:35:19;;;;;;;;;;;;;;;20.06;39.35;100521.31;4944305;28;4195;-67
2023/03/18 01:37:48;;;;;;;;;;;;;;;20.05;39.45;100520.56;4943887;28;4396;-67
2023/03/18 01:40:15;;;;;;;;;;;;;;;20.05;39.46;100525.59;4934172;28;4177;-68
2023/03/18 01:42:46;;;;;;;;;;;;;;;20.04;39.49;100516.22;4931562;28;4232;-67
2023/03/18 01:45:16;;;;;;;;;;;;;;;20.03;39.50;100511.13;4916159;29;4196;-68
2023/03/18 01:47:43;;;;;;;;;;;;;;;20.02;39.48;100513.25;4932327;29;4161;-67
2023/03/18 01:50:11;;;;;;;;;;;;;;;20.02;39.46;100513.25;4944382;28;4074;-67
2023/03/18 01:52:38;;;;;;;;;;;;;;;20.02;39.50;100521.88;4936449;29;4212;-68
2023/03/18 01:55:05;;;;;;;;;;;;;;;20.02;39.41;100516.13;4937834;29;4117;-67
2023/03/18 01:57:32;;;;;;;;;;;;;;;20.01;39.39;100523.25;4934077;28;4187;-67
2023/03/18 01:59:58;;;;;;;;;;;;;;;20.01;39.53;100525.41;4936162;29;4081;-68
2023/03/18 02:02:25;;;;;;;;;;;;;;;20.02;39.50;100527.63;4925564;29;4242;-68
2023/03/18 02:04:52;;;;;;;;;;;;;;;20.01;39.40;100525.41;4921760;29;4125;-68
2023/03/18 02:07:20;;;;;;;;;;;;;;;20.00;39.18;100518.94;4935825;28;4091;-67
2023/03/18 02:09:46;;;;;;;;;;;;;;;20.00;39.32;100513.19;4915357;28;5143;-68
2023/03/18 02:12:14;;;;;;;;;;;;;;;19.99;39.54;100513.81;4901801;29;4211;-68
2023/03/18 02:14:40;;;;;;;;;;;;;;;19.98;39.39;100521.72;4921313;29;4222;-67
2023/03/18 02:17:20;;;;;;;;;;;;;;;19.99;39.50;100517.44;4927892;29;5239;-68
2023/03/18 02:19:51;;;;;;;;;;;;;;;19.98;39.38;100515.22;4915567;29;4427;-67
2023/03/18 02:22:27;;;;;;;;;;;;;;;19.97;39.40;100516.59;4919467;29;4058;-67
2023/03/18 02:25:16;;;;;;;;;;;;;;;19.97;39.46;100519.47;4911670;29;4401;-67
2023/03/18 02:27:44;;;;;;;;;;;;;;;19.97;39.41;100528.09;4937611;28;5291;-67
2023/03/18 02:30:15;;;;;;;;;;;;;;;19.96;39.44;100518.00;4937197;28;4080;-68
2023/03/18 02:32:43;;;;;;;;;;;;;;;19.96;39.44;100523.75;4901857;28;4290;-67
2023/03/18 02:35:10;;;;;;;;;;;;;;;19.97;39.44;100522.34;4940285;29;4165;-67
2023/03/18 02:37:37;;;;;;;;;;;;;;;19.95;39.44;100525.91;4918990;29;4313;-67
2023/03/18 02:40:11;;;;;;;;;;;;;;;19.95;39.39;100523.03;4933183;28;4131;-67
2023/03/18 02:42:37;;;;;;;;;;;;;;;19.94;39.44;100512.91;4916084;29;4058;-67
2023/03/18 02:45:04;;;;;;;;;;;;;;;19.94;39.44;100521.53;4931731;29;5307;-67
2023/03/18 02:47:39;;;;;;;;;;;;;;;19.94;39.41;100512.91;4919353;29;4169;-67
2023/03/18 02:50:06;;;;;;;;;;;;;;;19.93;39.48;100517.19;4929676;29;4135;-67
2023/03/18 02:52:32;;;;;;;;;;;;;;;19.94;39.48;100515.06;4931045;29;5306;-66
2023/03/18 02:55:00;;;;;;;;;;;;;;;19.93;39.48;100516.44;4931928;28;4230;-67
2023/03/18 02:57:27;;;;;;;;;;;;;;;19.92;39.54;100509.94;4924374;29;4385;-67
2023/03/18 02:59:55;;;;;;;;;;;;;;;19.92;39.53;100521.44;4929968;29;5433;-68
2023/03/18 03:02:22;;;;;;;;;;;;;;;19.92;39.46;100515.69;4919690;29;4139;-67
2023/03/18 03:04:48;;;;;;;;;;;;;;;19.91;39.48;100514.22;4942600;28;4160;-68
2023/03/18 03:07:16;;;;;;;;;;;;;;;19.91;39.47;100522.84;4924543;29;4240;-67
2023/03/18 03:09:48;;;;;;;;;;;;;;;19.90;39.49;100515.59;4932073;28;4187;-68
2023/03/18 03:12:15;;;;;;;;;;;;;;;19.90;39.33;100524.22;4926796;29;4127;-68
2023/03/18 03:14:48;;;;;;;;;;;;;;;19.89;39.57;100514.13;4923738;28;4164;-67
2023/03/18 03:17:15;;;;;;;;;;;;;;;19.89;39.49;100519.88;4931600;28;4112;-67
2023/03/18 03:19:42;;;;;;;;;;;;;;;19.89;39.50;100519.88;4922376;29;4051;-68
2023/03/18 03:22:09;;;;;;;;;;;;;;;19.88;39.50;100519.16;4944237;28;4172;-68
2023/03/18 03:24:35;;;;;;;;;;;;;;;19.87;39.54;100514.03;4932322;29;4002;-68
2023/03/18 03:27:01;;;;;;;;;;;;;;;19.87;39.50;100522.66;4941010;29;4080;-67
2023/03/18 03:29:28;;;;;;;;;;;;;;;19.86;39.43;100524.81;4935317;29;4943;-68
2023/03/18 03:31:54;;;;;;;;;;;;;;;19.86;39.58;100538.44;4919809;28;4220;-68
2023/03/18 03:34:20;;;;;;;;;;;;;;;19.87;39.49;100528.41;4943037;28;4168;-68
2023/03/18 03:36:47;;;;;;;;;;;;;;;19.85;39.50;100525.44;4943901;28;4166;-67
2023/03/18 03:39:13;;;;;;;;;;;;;;;19.86;39.54;100521.19;4937282;28;4144;-67
2023/03/18 03:41:39;;;;;;;;;;;;;;;19.87;39.58;100511.19;4941808;28;4216;-67
2023/03/18 03:44:06;;;;;;;;;;;;;;;19.87;39.60;100511.91;4942023;29;6267;-67
2023/03/18 03:46:34;;;;;;;;;;;;;;;19.88;39.55;100519.16;4943867;28;4422;-67
2023/03/18 03:49:00;;;;;;;;;;;;;;;19.90;39.69;100527.09;4946500;28;3983;-67
2023/03/18 03:51:27;;;;;;;;;;;;;;;19.92;39.92;100518.56;4944329;28;4043;-68
2023/03/18 03:53:53;;;;;;;;;;;;;;;19.93;39.93;100531.56;4931105;29;5351;-68
2023/03/18 03:56:20;;;;;;;;;;;;;;;19.94;40.04;100527.28;4943981;28;3995;-67
2023/03/18 03:58:46;;;;;;;;;;;;;;;19.91;40.00;100527.88;4946347;28;4115;-68
2023/03/18 04:01:13;;;;;;;;;;;;;;;19.90;39.97;100532.84;4938848;28;4006;-68
2023/03/18 04:03:41;;;;;;;;;;;;;;;19.91;40.02;100534.34;4942320;28;4217;-68
2023/03/18 04:06:07;;;;;;;;;;;;;;;19.92;39.99;100518.56;4946621;28;4172;-68
2023/03/18 04:08:38;;;;;;;;;;;;;;;19.91;40.02;100528.59;4940080;29;4188;-68
2023/03/18 04:11:05;;;;;;;;;;;;;;;19.92;40.08;100532.94;4936524;28;4096;-67
2023/03/18 04:13:32;;;;;;;;;;;;;;;19.92;40.02;100535.06;4919254;29;4175;-68
2023/03/18 04:15:59;;;;;;;;;;;;;;;19.93;40.07;100542.28;4943934;28;4195;-68
2023/03/18 04:18:25;;;;;;;;;;;;;;;19.94;40.15;100550.28;4943595;28;4125;-68
2023/03/18 04:20:51;;;;;;;;;;;;;;;19.95;40.12;100542.38;4918406;29;5246;-68
2023/03/18 04:23:28;;;;;;;;;;;;;;;19.95;40.11;100539.50;4947642;28;5363;-68
2023/03/18 04:25:55;;;;;;;;;;;;;;;19.95;40.14;100546.00;4931667;28;4184;-68
2023/03/18 04:28:21;;;;;;;;;;;;;;;19.96;40.03;100547.50;4927504;29;4282;-68
2023/03/18 04:30:48;;;;;;;;;;;;;;;19.97;40.13;100548.97;4941185;28;4210;-68
2023/03/18 04:33:16;;;;;;;;;;;;;;;20.00;40.07;100544.78;4924596;29;4106;-68
2023/03/18 04:35:43;;;;;;;;;;;;;;;20.01;40.06;100548.41;4917192;29;4147;-67
2023/03/18 04:38:11;;;;;;;;;;;;;;;20.01;40.12;100554.88;4919084;29;4163;-68
2023/03/18 04:40:38;;;;;;;;;;;;;;;20.01;40.07;100554.16;4918597;28;4118;-67
2023/03/18 04:43:04;;;;;;;;;;;;;;;20.01;40.05;100560.63;4934842;29;4545;-68
2023/03/18 04:45:31;;;;;;;;;;;;;;;20.01;40.13;100565.66;4931458;28;4192;-68
2023/03/18 04:47:59;;;;;;;;;;;;;;;20.01;40.09;100557.75;4934723;28;4061;-67
2023/03/18 04:50:29;;;;;;;;;;;;;;;20.00;40.08;100553.41;4933834;29;3926;-68
2023/03/18 04:52:56;;;;;;;;;;;;;;;20.01;40.13;100560.63;4918116;28;4109;-68
2023/03/18 04:55:25;;;;;;;;;;;;;;;20.02;40.00;100561.38;4931485;28;4197;-67
2023/03/18 04:57:53;;;;;;;;;;;;;;;20.04;40.12;100565.09;4931477;28;5252;-68
2023/03/18 05:00:22;;;;;;;;;;;;;;;20.04;40.13;100570.84;4919671;29;4386;-68
2023/03/18 05:02:54;;;;;;;;;;;;;;;20.05;40.03;100565.81;4921659;29;4502;-67
2023/03/18 05:05:22;;;;;;;;;;;;;;;20.05;40.12;100566.56;4929202;29;4001;-68
2023/03/18 05:07:50;;;;;;;;;;;;;;;20.05;40.16;100575.19;4928353;29;4096;-68
2023/03/18 05:10:18;;;;;;;;;;;;;;;20.04;40.07;100565.09;4932029;28;4050;-67
2023/03/18 05:12:45;;;;;;;;;;;;;;;20.05;40.17;100571.56;4929058;29;5353;-68
2023/03/18 05:15:14;;;;;;;;;;;;;;;20.04;40.17;100570.06;4938461;28;3943;-67
2023/03/18 05:17:46;;;;;;;;;;;;;;;20.04;40.17;100570.84;4927309;28;4141;-68
2023/03/18 05:20:13;;;;;;;;;;;;;;;20.02;40.19;100564.25;4937036;28;4251;-68
2023/03/18 05:22:41;;;;;;;;;;;;;;;20.02;40.22;100567.13;4926765;29;4156;-68
2023/03/18 05:25:14;;;;;;;;;;;;;;;20.02;40.19;100561.38;4914717;29;4170;-67
2023/03/18 05:27:41;;;;;;;;;;;;;;;20.01;40.26;100560.63;4932716;28;4279;-68
2023/03/18 05:30:14;;;;;;;;;;;;;;;20.02;40.29;100555.63;4955080;28;4259;-68
2023/03/18 05:32:46;;;;;;;;;;;;;;;20.04;40.27;100553.59;4952628;28;5253;-68
2023/03/18 05:35:12;;;;;;;;;;;;;;;20.04;40.24;100559.34;4944524;28;4022;-67
2023/03/18 05:37:47;;;;;;;;;;;;;;;20.05;40.22;100546.44;4936876;29;4348;-67
2023/03/18 05:40:15;;;;;;;;;;;;;;;20.07;40.24;100558.03;4938298;28;4053;-67
2023/03/18 05:42:51;;;;;;;;;;;;;;;20.07;40.19;100563.78;4936535;28;4176;-67
2023/03/18 05:45:30;;;;;;;;;;;;;;;20.06;40.17;100570.91;4937591;28;4003;-67
2023/03/18 05:47:57;;;;;;;;;;;;;;;20.05;40.23;100569.44;4920099;28;5315;-67
2023/03/18 05:50:30;;;;;;;;;;;;;;;20.06;40.31;100570.16;4931732;29;4033;-67
2023/03/18 05:52:58;;;;;;;;;;;;;;;20.06;40.32;100565.16;4931780;29;5444;-67
2023/03/18 05:55:27;;;;;;;;;;;;;;;20.06;40.30;100573.78;4934323;28;4110;-67
2023/03/18 05:57:53;;;;;;;;;;;;;;;20.06;40.31;100568.03;4942437;28;4265;-67
2023/03/18 06:00:20;;;;;;;;;;;;;;;20.05;40.35;100566.56;4932929;28;4034;-67
2023/03/18 06:02:48;;;;;;;;;;;;;;;20.05;40.32;100572.31;4930498;29;4145;-68
2023/03/18 06:05:17;;;;;;;;;;;;;;;20.06;40.36;100561.53;4943366;28;4161;-68
2023/03/18 06:07:44;;;;;;;;;;;;;;;20.06;40.33;100570.16;4929578;29;4588;-68
2023/03/18 06:10:11;;;;;;;;;;;;;;;20.07;40.33;100586.03;4939141;28;4270;-67
2023/03/18 06:12:37;;;;;;;;;;;;;;;20.08;40.24;100590.38;4930153;29;4056;-67
2023/03/18 06:15:07;;;;;;;;;;;;;;;20.08;40.28;100593.25;4937104;28;5375;-68
2023/03/18 06:17:34;;;;;;;;;;;;;;;20.08;40.38;100588.25;4932533;28;4229;-68
2023/03/18 06:20:01;;;;;;;;;;;;;;;20.08;40.34;100593.25;4917484;28;4094;-68
2023/03/18 06:22:28;;;;;;;;;;;;;;;20.08;40.34;100588.25;4929357;29;5154;-68
2023/03/18 06:24:55;;;;;;;;;;;;;;;20.08;40.42;100581.75;4941666;28;6899;-68
2023/03/18 06:27:22;;;;;;;;;;;;;;;20.08;40.31;100587.50;4921715;29;5263;-68
2023/03/18 06:29:53;;;;;;;;;;;;;;;20.07;40.39;100586.03;4935764;28;4051;-68
2023/03/18 06:32:20;;;;;;;;;;;;;;;20.06;40.38;100585.28;4930139;29;4508;-68
2023/03/18 06:34:47;;;;;;;;;;;;;;;20.06;40.37;100587.41;4916757;28;4102;-67
2023/03/18 06:37:14;;;;;;;;;;;;;;;20.07;40.41;100588.91;4936381;28;4040;-68
2023/03/18 06:39:40;;;;;;;;;;;;;;;20.06;40.41;100588.16;4915026;29;4199;-70
2023/03/18 06:42:09;;;;;;;;;;;;;;;20.06;40.36;100585.28;4927212;29;4008;-67
2023/03/18 06:44:49;;;;;;;;;;;;;;;20.05;40.41;100586.69;4938738;28;5363;-68
2023/03/18 06:47:20;;;;;;;;;;;;;;;20.06;40.41;100591.03;4943444;28;3977;-68
2023/03/18 06:49:53;;;;;;;;;;;;;;;20.09;40.41;100597.63;4936004;29;5283;-67
2023/03/18 06:52:27;;;;;;;;;;;;;;;20.09;40.41;100601.22;4938432;28;4344;-67
2023/03/18 06:54:59;;;;;;;;;;;;;;;20.11;40.24;100600.56;4929775;29;5417;-67
2023/03/18 06:57:26;;;;;;;;;;;;;;;20.12;40.38;100609.94;4941856;28;4241;-67
2023/03/18 06:59:53;;;;;;;;;;;;;;;20.09;40.48;100601.22;4932745;29;4239;-65
2023/03/18 07:02:22;;;;;;;;;;;;;;;20.16;40.45;100615.84;4950627;28;4171;-68
2023/03/18 07:04:48;;;;;;;;;;;;;;;20.18;40.61;100631.06;4934633;29;4185;-67
2023/03/18 07:07:15;;;;;;;;;;;;;;;20.20;40.61;100628.28;4943836;28;4569;-69
2023/03/18 07:09:42;;;;;;;;;;;;;;;20.18;40.61;100625.31;4938749;28;4204;-67
2023/03/18 07:12:08;;;;;;;;;;;;;;;20.17;40.56;100631.72;4939970;28;6293;-67
2023/03/18 07:14:35;;;;;;;;;;;;;;;20.11;40.67;100637.19;4913453;29;5478;-68
2023/03/18 07:17:02;;;;;;;;;;;;;;;19.99;39.94;100637.41;4923912;28;4028;-67
2023/03/18 07:19:31;;;;;;;;;;;;;;;20.00;39.45;100639.63;4922075;29;4044;-67
2023/03/18 07:21:57;;;;;;;;;;;;;;;20.01;39.58;100641.09;4949632;28;3992;-67
2023/03/18 07:24:25;;;;;;;;;;;;;;;20.01;39.43;100637.50;4920555;29;4214;-67
2023/03/18 07:26:52;;;;;;;;;;;;;;;20.01;39.30;100643.25;4948511;28;4315;-68
2023/03/18 07:29:19;;;;;;;;;;;;;;;20.01;39.01;100646.84;4924537;29;4965;-68
2023/03/18 07:31:45;;;;;;;;;;;;;;;20.02;38.93;100641.84;4944472;28;4286;-67
2023/03/18 07:34:12;;;;;;;;;;;;;;;20.04;38.61;100657.06;4945754;28;4025;-68
2023/03/18 07:36:38;;;;;;;;;;;;;;;20.05;38.34;100657.81;4921379;29;4130;-68
2023/03/18 07:39:04;;;;;;;;;;;;;;;20.05;38.43;100658.53;4942069;28;4115;-70
2023/03/18 07:41:31;;;;;;;;;;;;;;;19.97;37.73;100663.91;4945626;28;4143;-63
2023/03/18 07:43:58;;;;;;;;;;;;;;;18.99;34.96;100676.56;4943501;28;6418;-63
2023/03/18 07:46:24;;;;;;;;;;;;;;;18.46;34.06;100679.59;4949477;28;4078;-67
2023/03/18 07:48:51;;;;;;;;;;;;;;;18.45;33.82;100672.41;4941895;28;3964;-68
2023/03/18 07:51:18;;;;;;;;;;;;;;;18.99;34.36;100676.56;4946222;28;4247;-67
2023/03/18 07:53:44;;;;;;;;;;;;;;;19.37;34.51;100669.06;4944550;28;5511;-67
2023/03/18 07:56:11;;;;;;;;;;;;;;;19.54;34.71;100670.56;4950347;28;4080;-70
2023/03/18 07:58:38;;;;;;;;;;;;;;;19.71;35.19;100665.59;4946673;28;5233;-67
2023/03/18 08:01:04;;;;;;;;;;;;;;;19.77;35.25;100657.25;4944634;28;5231;-67
2023/03/18 08:03:30;;;;;;;;;;;;;;;19.81;35.15;100663.19;4944844;28;4004;-67
2023/03/18 08:05:57;;;;;;;;;;;;;;;19.85;35.96;100663.38;4942869;28;4262;-66
2023/03/18 08:08:23;;;;;;;;;;;;;;;19.90;35.82;100673.66;4944089;28;5310;-67
2023/03/18 08:10:51;;;;;;;;;;;;;;;19.91;36.38;100666.53;4941330;28;4518;-67
2023/03/18 08:13:17;;;;;;;;;;;;;;;19.94;36.24;100678.84;4946949;28;4081;-68
2023/03/18 08:15:43;;;;;;;;;;;;;;;19.96;36.56;100691.19;4948628;28;5402;-67
2023/03/18 08:18:10;;;;;;;;;;;;;;;19.96;36.76;100679.69;4954530;28;3947;-67
2023/03/18 08:20:37;;;;;;;;;;;;;;;19.97;36.81;100680.41;4949767;28;4361;-67
2023/03/18 08:23:03;;;;;;;;;;;;;;;19.99;36.93;100689.88;4945411;28;4173;-67
2023/03/18 08:25:29;;;;;;;;;;;;;;;20.00;37.08;100691.38;4949291;28;4536;-68
2023/03/18 08:27:57;;;;;;;;;;;;;;;20.02;37.39;100671.34;4949217;28;3977;-68
2023/03/18 08:30:27;;;;;;;;;;;;;;;20.04;37.27;100671.44;4951129;28;5260;-67
2023/03/18 08:32:54;;;;;;;;;;;;;;;20.04;37.60;100662.81;4951409;28;5200;-69
2023/03/18 08:35:20;;;;;;;;;;;;;;;20.06;37.53;100674.38;4948187;28;3978;-68
2023/03/18 08:37:47;;;;;;;;;;;;;;;20.07;37.62;100687.38;4946773;28;4224;-69
2023/03/18 08:40:14;;;;;;;;;;;;;;;20.09;37.90;100678.09;4951623;28;4114;-68
2023/03/18 08:42:40;;;;;;;;;;;;;;;20.09;37.94;100693.22;4953350;28;4232;-70
2023/03/18 08:45:06;;;;;;;;;;;;;;;20.11;38.07;100688.94;4947812;28;4382;-69
2023/03/18 08:47:33;;;;;;;;;;;;;;;20.09;38.12;100687.47;4950982;28;4241;-69
2023/03/18 08:49:59;;;;;;;;;;;;;;;20.11;38.16;100694.69;4946581;28;5299;-68
2023/03/18 08:52:26;;;;;;;;;;;;;;;20.12;38.29;100701.94;4950682;28;4301;-69
2023/03/18 08:54:52;;;;;;;;;;;;;;;20.12;38.31;100693.31;4945527;28;4162;-69
2023/03/18 08:57:18;;;;;;;;;;;;;;;20.11;38.45;100694.69;4939560;28;4147;-68
2023/03/18 08:59:45;;;;;;;;;;;;;;;20.13;38.48;100695.53;4946278;28;4132;-68
2023/03/18 09:02:18;;;;;;;;;;;;;;;20.16;38.46;100688.47;4949366;28;4190;-67
2023/03/18 09:04:44;;;;;;;;;;;;;;;20.19;38.66;100683.56;4945022;28;4209;-68
2023/03/18 09:07:11;;;;;;;;;;;;;;;20.20;38.74;100697.28;4937364;28;4495;-74
2023/03/18 09:09:38;;;;;;;;;;;;;;;20.19;38.90;100700.81;4937558;28;4055;-68
2023/03/18 09:12:11;;;;;;;;;;;;;;;20.16;38.95;100704.97;4943315;28;5372;-63
2023/03/18 09:14:39;;;;;;;;;;;;;;;20.18;38.87;100710.81;4932352;28;4195;-69
2023/03/18 09:17:05;;;;;;;;;;;;;;;20.12;39.02;100708.41;4938553;28;4338;-68
2023/03/18 09:19:31;;;;;;;;;;;;;;;20.12;39.01;100707.69;4944225;28;3935;-68
2023/03/18 09:21:58;;;;;;;;;;;;;;;20.13;39.05;100712.03;4940568;28;4189;-68
2023/03/18 09:24:24;;;;;;;;;;;;;;;20.13;39.04;100709.16;4942236;28;4181;-68
2023/03/18 09:26:51;;;;;;;;;;;;;;;20.13;39.09;100715.63;4943073;28;4158;-68
2023/03/18 09:29:17;;;;;;;;;;;;;;;20.14;39.12;100716.41;4941257;28;4209;-69
2023/03/18 09:31:44;;;;;;;;;;;;;;;20.14;39.14;100716.41;4943535;28;4250;-68
2023/03/18 09:34:12;;;;;;;;;;;;;;;20.13;39.15;100706.28;4944812;28;5504;-68
2023/03/18 09:36:39;;;;;;;;;;;;;;;20.14;39.13;100707.78;4942261;28;4167;-68
2023/03/18 09:39:07;;;;;;;;;;;;;;;20.14;39.19;100707.78;4942233;28;5397;-68
2023/03/18 09:41:41;;;;;;;;;;;;;;;20.14;39.21;100705.63;4943757;28;4229;-68
2023/03/18 09:44:23;;;;;;;;;;;;;;;20.14;39.23;100708.50;4928789;29;4184;-68
2023/03/18 09:46:56;;;;;;;;;;;;;;;20.14;39.28;100705.63;4938868;28;4136;-68
2023/03/18 09:49:26;;;;;;;;;;;;;;;20.15;39.14;100715.00;4940863;28;4380;-67
2023/03/18 09:51:58;;;;;;;;;;;;;;;20.15;39.30;100706.38;4937597;28;5200;-68
2023/03/18 09:54:31;;;;;;;;;;;;;;;20.16;39.49;100722.22;4943950;28;4187;-68
2023/03/18 09:56:57;;;;;;;;;;;;;;;20.15;39.31;100712.13;4917825;29;4177;-68
2023/03/18 09:59:25;;;;;;;;;;;;;;;20.15;39.35;100718.59;4921999;28;4307;-68
2023/03/18 10:01:53;;;;;;;;;;;;;;;20.15;39.14;100712.13;4943813;28;4110;-68
2023/03/18 10:04:20;;;;;;;;;;;;;;;20.15;39.31;100717.88;4933698;28;4203;-68
2023/03/18 10:06:47;;;;;;;;;;;;;;;20.16;39.44;100713.59;4936905;28;5332;-68
2023/03/18 10:09:23;;;;;;;;;;;;;;;20.16;39.42;100722.97;4941215;28;4357;-68
2023/03/18 10:11:50;;;;;;;;;;;;;;;20.16;39.50;100722.22;4938459;29;5123;-68
2023/03/18 10:14:25;;;;;;;;;;;;;;;20.15;39.45;100712.84;4928535;28;4898;-69
2023/03/18 10:17:10;;;;;;;;;;;;;;;20.15;39.32;100712.13;4940477;29;4176;-68
2023/03/18 10:19:36;;;;;;;;;;;;;;;20.16;39.52;100717.22;4935590;28;4261;-68
2023/03/18 10:22:09;;;;;;;;;;;;;;;20.16;39.46;100713.59;4916393;29;3954;-68
2023/03/18 10:24:41;;;;;;;;;;;;;;;20.17;39.49;100720.84;4943373;28;4185;-70
2023/03/18 10:27:18;;;;;;;;;;;;;;;20.17;39.46;100715.81;4914997;28;4325;-69
2023/03/18 10:29:50;;;;;;;;;;;;;;;20.17;39.58;100720.84;4943530;28;4121;-70
2023/03/18 10:32:19;;;;;;;;;;;;;;;20.17;39.48;100723.72;4943618;28;4125;-68
2023/03/18 10:34:56;;;;;;;;;;;;;;;20.17;39.64;100729.47;4940655;28;4363;-71
2023/03/18 10:37:42;;;;;;;;;;;;;;;20.18;39.60;100722.31;4943849;28;4192;-68
2023/03/18 10:40:09;;;;;;;;;;;;;;;20.18;39.70;100728.81;4941925;28;4052;-68
2023/03/18 10:42:36;;;;;;;;;;;;;;;20.17;39.63;100721.56;4929097;29;4119;-68
2023/03/18 10:45:07;;;;;;;;;;;;;;;20.19;39.81;100720.94;4940594;28;4286;-68
2023/03/18 10:47:35;;;;;;;;;;;;;;;20.19;39.80;100718.06;4927317;29;4149;-68
2023/03/18 10:50:13;;;;;;;;;;;;;;;20.20;39.89;100716.66;4917454;29;4443;-68
2023/03/18 10:52:46;;;;;;;;;;;;;;;20.19;39.96;100723.81;4940526;29;4011;-68
2023/03/18 10:55:17;;;;;;;;;;;;;;;20.19;40.09;100712.31;4919123;29;4213;-68
2023/03/18 10:57:43;;;;;;;;;;;;;;;20.19;40.15;100718.06;4936347;29;5203;-67
2023/03/18 11:00:29;;;;;;;;;;;;;;;20.21;39.90;100726.78;4941134;28;4152;-67
2023/03/18 11:02:56;;;;;;;;;;;;;;;20.20;40.29;100723.16;4943243;28;5201;-71
2023/03/18 11:05:28;;;;;;;;;;;;;;;20.20;40.29;100726.03;4919563;29;4093;-68
2023/03/18 11:08:17;;;;;;;;;;;;;;;20.21;40.58;100735.41;4916574;29;4379;-68
2023/03/18 11:10:44;;;;;;;;;;;;;;;20.20;40.45;100731.03;4937254;28;4025;-68
2023/03/18 11:13:17;;;;;;;;;;;;;;;20.21;40.62;100732.53;4945722;28;4151;-68
2023/03/18 11:15:45;;;;;;;;;;;;;;;20.21;40.61;100738.28;4936168;28;4248;-67
2023/03/18 11:18:15;;;;;;;;;;;;;;;20.22;40.68;100734.00;4915760;29;4239;-70
2023/03/18 11:20:46;;;;;;;;;;;;;;;20.21;40.54;100724.63;4920403;29;4114;-68
2023/03/18 11:23:14;;;;;;;;;;;;;;;20.22;40.69;100723.22;4944260;28;5428;-67
2023/03/18 11:25:40;;;;;;;;;;;;;;;20.21;40.80;100729.66;4939019;28;4706;-68
2023/03/18 11:28:12;;;;;;;;;;;;;;;20.22;40.77;100729.00;4915321;28;4056;-67
2023/03/18 11:30:43;;;;;;;;;;;;;;;20.22;40.84;100734.00;4919608;29;4169;-68
2023/03/18 11:33:10;;;;;;;;;;;;;;;20.23;40.81;100721.13;4939628;28;4135;-69
2023/03/18 11:35:56;;;;;;;;;;;;;;;20.23;40.80;100724.00;4941200;28;5429;-68
2023/03/18 11:38:27;;;;;;;;;;;;;;;20.23;40.79;100718.25;4942172;28;4151;-68
2023/03/18 11:41:04;;;;;;;;;;;;;;;20.22;40.96;100716.75;4946289;28;4280;-68
2023/03/18 11:43:30;;;;;;;;;;;;;;;20.23;40.87;100718.25;4946658;28;4197;-68
2023/03/18 11:45:57;;;;;;;;;;;;;;;20.23;41.06;100724.00;4940819;28;5494;-68
2023/03/18 11:48:35;;;;;;;;;;;;;;;20.23;41.13;100724.00;4943306;28;5119;-68
2023/03/18 11:51:21;;;;;;;;;;;;;;;20.23;40.92;100718.97;4937909;28;5235;-69
2023/03/18 11:53:54;;;;;;;;;;;;;;;20.25;41.19;100718.34;4936098;28;4556;-64
2023/03/18 11:56:32;;;;;;;;;;;;;;;20.30;41.23;100711.38;4942003;28;5320;-64
2023/03/18 11:59:01;;;;;;;;;;;;;;;20.31;41.03;100712.84;4941768;28;4017;-63
2023/03/18 12:01:41;;;;;;;;;;;;;;;20.27;41.27;100712.66;4924492;29;4252;-66
2023/03/18 12:04:22;;;;;;;;;;;;;;;20.21;40.84;100723.91;4924954;29;4197;-66
2023/03/18 12:06:54;;;;;;;;;;;;;;;20.21;40.71;100718.16;4917087;29;4162;-72
2023/03/18 12:09:28;;;;;;;;;;;;;;;20.22;41.12;100719.63;4934197;29;4096;-71
2023/03/18 12:11:57;;;;;;;;;;;;;;;20.22;41.28;100723.22;4930672;28;4524;-69
2023/03/18 12:14:59;;;;;;;;;;;;;;;20.26;41.31;100722.69;4943505;28;4588;-69
2023/03/18 12:17:34;;;;;;;;;;;;;;;20.28;41.36;100728.53;4892687;29;5244;-69
2023/03/18 12:20:08;;;;;;;;;;;;;;;20.32;41.24;100730.81;4918346;28;5261;-71
2023/03/18 12:22:56;;;;;;;;;;;;;;;20.30;41.59;100723.59;4924304;29;4059;-70
2023/03/18 12:25:29;;;;;;;;;;;;;;;20.30;41.49;100728.63;4941918;28;4185;-71
2023/03/18 12:27:57;;;;;;;;;;;;;;;20.30;41.56;100734.38;4928825;28;4080;-71
2023/03/18 12:30:24;;;;;;;;;;;;;;;20.30;41.66;100720.00;4944160;28;5378;-71
2023/03/18 12:32:55;;;;;;;;;;;;;;;20.34;41.62;100717.31;4940801;28;4035;-70
2023/03/18 12:35:27;;;;;;;;;;;;;;;20.33;41.67;100721.56;4928690;29;4431;-71
2023/03/18 12:38:10;;;;;;;;;;;;;;;20.33;41.88;100721.56;4924814;28;4212;-71
2023/03/18 12:40:55;;;;;;;;;;;;;;;20.36;41.93;100731.75;4927968;29;4505;-70
2023/03/18 12:43:23;;;;;;;;;;;;;;;20.37;41.89;100733.25;4937103;28;5331;-70
2023/03/18 12:45:52;;;;;;;;;;;;;;;20.37;41.91;100721.75;4920358;28;4249;-71
2023/03/18 12:48:21;;;;;;;;;;;;;;;20.39;41.96;100716.09;4918697;28;4363;-72
2023/03/18 12:51:08;;;;;;;;;;;;;;;20.38;42.07;100716.72;4932210;28;4173;-71
2023/03/18 12:53:37;;;;;;;;;;;;;;;20.41;41.93;100715.41;4927656;29;4358;-71
2023/03/18 12:56:04;;;;;;;;;;;;;;;20.40;42.20;100711.06;4937972;28;4492;-71
2023/03/18 12:58:31;;;;;;;;;;;;;;;20.39;42.29;100709.59;4916350;28;4221;-71